createdAt,value
2018-05-17T00:00:34.352Z,0
2018-05-17T00:01:44.091Z,0
2018-05-17T00:02:54.097Z,0
2018-05-17T00:04:03.838Z,0
2018-05-17T00:05:13.311Z,0
2018-05-17T00:06:23.322Z,0
2018-05-17T00:07:33.335Z,0
2018-05-17T00:08:42.817Z,0
2018-05-17T00:09:52.840Z,0
2018-05-17T00:11:02.843Z,0
2018-05-17T00:12:12.590Z,0
2018-05-17T00:13:22.614Z,0
2018-05-17T00:14:32.710Z,0
2018-05-17T00:15:42.719Z,0
2018-05-17T00:16:52.462Z,0
2018-05-17T00:18:02.207Z,0
2018-05-17T00:19:12.220Z,0
2018-05-17T00:20:21.959Z,0
2018-05-17T00:21:31.702Z,0
2018-05-17T00:22:41.446Z,0
2018-05-17T00:23:51.456Z,0
2018-05-17T00:25:01.471Z,0
2018-05-17T00:26:11.221Z,0
2018-05-17T00:27:20.693Z,0
2018-05-17T00:28:30.720Z,0
2018-05-17T00:29:40.741Z,0
2018-05-17T00:30:50.758Z,0
2018-05-17T00:32:00.894Z,0
2018-05-17T00:33:10.903Z,0
2018-05-17T00:34:20.917Z,0
2018-05-17T00:35:30.924Z,0
2018-05-17T00:36:40.132Z,0
2018-05-17T00:37:50.149Z,0
2018-05-17T00:39:00.164Z,0
2018-05-17T00:40:09.907Z,0
2018-05-17T00:41:19.645Z,0
2018-05-17T00:42:29.680Z,0
2018-05-17T00:43:39.150Z,0
2018-05-17T00:44:48.891Z,0
2018-05-17T00:45:58.905Z,0
2018-05-17T00:47:08.649Z,0
2018-05-17T00:48:18.388Z,0
2018-05-17T00:49:28.191Z,0
2018-05-17T00:50:38.197Z,0
2018-05-17T00:51:48.263Z,0
2018-05-17T00:52:58.270Z,0
2018-05-17T00:54:08.012Z,0
2018-05-17T00:55:17.763Z,0
2018-05-17T00:56:27.773Z,0
2018-05-17T00:57:37.517Z,0
2018-05-17T00:58:46.996Z,0
2018-05-17T00:59:57.002Z,0
2018-05-17T01:01:06.858Z,0
2018-05-17T01:02:16.868Z,0
2018-05-17T01:03:26.891Z,0
2018-05-17T01:04:36.895Z,0
2018-05-17T01:05:46.902Z,0
2018-05-17T01:06:56.921Z,0
2018-05-17T01:08:06.936Z,0
2018-05-17T01:09:16.420Z,0
2018-05-17T01:10:25.969Z,0
2018-05-17T01:11:35.447Z,0
2018-05-17T01:12:45.186Z,0
2018-05-17T01:13:54.655Z,0
2018-05-17T01:15:04.395Z,0
2018-05-17T01:16:14.140Z,0
2018-05-17T01:17:24.150Z,0
2018-05-17T01:18:33.896Z,0
2018-05-17T01:19:43.907Z,0
2018-05-17T01:20:53.925Z,0
2018-05-17T01:22:03.663Z,0
2018-05-17T01:23:13.403Z,0
2018-05-17T01:24:23.142Z,0
2018-05-17T01:25:33.159Z,0
2018-05-17T01:26:42.904Z,0
2018-05-17T01:27:52.923Z,0
2018-05-17T01:29:02.930Z,0
2018-05-17T01:30:12.957Z,0
2018-05-17T01:31:22.962Z,0
2018-05-17T01:32:32.971Z,0
2018-05-17T01:33:42.711Z,4
2018-05-17T01:34:52.759Z,4
2018-05-17T01:36:01.975Z,4
2018-05-17T01:37:11.454Z,4
2018-05-17T01:38:21.682Z,0
2018-05-17T01:39:31.151Z,0
2018-05-17T01:40:40.896Z,4
2018-05-17T01:41:50.904Z,4
2018-05-17T01:43:00.911Z,4
2018-05-17T01:44:10.926Z,8
2018-05-17T01:45:20.937Z,4
2018-05-17T01:46:30.942Z,4
2018-05-17T01:47:41.022Z,8
2018-05-17T01:48:50.779Z,4
2018-05-17T01:50:00.267Z,8
2018-05-17T01:51:10.020Z,8
2018-05-17T01:52:19.848Z,8
2018-05-17T01:53:29.859Z,8
2018-05-17T01:54:39.601Z,12
2018-05-17T01:55:49.346Z,8
2018-05-17T01:56:59.350Z,12
2018-05-17T01:58:09.099Z,12
2018-05-17T01:59:19.169Z,12
2018-05-17T02:00:28.912Z,12
2018-05-17T02:01:38.390Z,16
2018-05-17T02:02:48.149Z,16
2018-05-17T02:03:57.896Z,20
2018-05-17T02:05:08.000Z,16
2018-05-17T02:06:17.759Z,20
2018-05-17T02:07:26.962Z,24
2018-05-17T02:08:36.433Z,24
2018-05-17T02:09:46.177Z,24
2018-05-17T02:10:56.268Z,24
2018-05-17T02:12:05.752Z,32
2018-05-17T02:13:15.497Z,32
2018-05-17T02:14:25.236Z,36
2018-05-17T02:15:34.983Z,36
2018-05-17T02:16:44.462Z,40
2018-05-17T02:17:54.204Z,48
2018-05-17T02:19:04.221Z,48
2018-05-17T02:20:14.312Z,52
2018-05-17T02:21:24.320Z,52
2018-05-17T02:22:34.161Z,60
2018-05-17T02:23:43.631Z,60
2018-05-17T02:24:53.383Z,64
2018-05-17T02:26:03.397Z,68
2018-05-17T02:27:12.878Z,72
2018-05-17T02:28:22.617Z,76
2018-05-17T02:29:32.718Z,80
2018-05-17T02:30:42.750Z,80
2018-05-17T02:31:52.501Z,80
2018-05-17T02:33:02.260Z,84
2018-05-17T02:34:12.307Z,88
2018-05-17T02:35:21.784Z,92
2018-05-17T02:36:31.542Z,96
2018-05-17T02:37:41.557Z,100
2018-05-17T02:38:51.577Z,112
2018-05-17T02:40:01.607Z,120
2018-05-17T02:41:11.628Z,128
2018-05-17T02:42:21.757Z,140
2018-05-17T02:43:31.774Z,152
2018-05-17T02:44:41.780Z,160
2018-05-17T02:45:51.811Z,168
2018-05-17T02:47:01.575Z,176
2018-05-17T02:48:11.599Z,184
2018-05-17T02:49:21.767Z,196
2018-05-17T02:50:31.510Z,208
2018-05-17T02:51:41.622Z,224
2018-05-17T02:52:51.653Z,236
2018-05-17T02:54:01.693Z,244
2018-05-17T02:55:11.176Z,248
2018-05-17T02:56:20.941Z,256
2018-05-17T02:57:30.956Z,264
2018-05-17T02:58:40.441Z,272
2018-05-17T02:59:50.193Z,284
2018-05-17T03:03:32.549Z,300
2018-05-17T03:04:42.317Z,308
2018-05-17T03:05:51.798Z,312
2018-05-17T03:07:01.551Z,324
2018-05-17T03:08:11.560Z,340
2018-05-17T03:09:21.569Z,352
2018-05-17T03:10:31.054Z,368
2018-05-17T03:11:41.067Z,372
2018-05-17T03:12:50.823Z,380
2018-05-17T03:14:00.563Z,388
2018-05-17T03:15:10.320Z,400
2018-05-17T03:16:20.335Z,416
2018-05-17T03:17:30.342Z,432
2018-05-17T03:18:40.084Z,452
2018-05-17T03:19:49.823Z,472
2018-05-17T03:20:59.294Z,492
2018-05-17T03:22:08.773Z,516
2018-05-17T03:23:18.782Z,536
2018-05-17T03:24:28.525Z,560
2018-05-17T03:25:38.001Z,576
2018-05-17T03:26:47.772Z,584
2018-05-17T03:27:57.247Z,604
2018-05-17T03:29:06.994Z,616
2018-05-17T03:30:16.472Z,632
2018-05-17T03:31:26.500Z,640
2018-05-17T03:32:36.611Z,644
2018-05-17T03:33:46.627Z,648
2018-05-17T03:34:56.367Z,652
2018-05-17T03:36:05.846Z,676
2018-05-17T03:37:15.869Z,696
2018-05-17T03:38:25.892Z,720
2018-05-17T03:39:35.911Z,736
2018-05-17T03:40:45.917Z,740
2018-05-17T03:41:55.935Z,748
2018-05-17T03:43:05.413Z,756
2018-05-17T03:44:15.160Z,772
2018-05-17T03:45:24.906Z,796
2018-05-17T03:46:34.935Z,812
2018-05-17T03:47:44.406Z,836
2018-05-17T03:48:54.146Z,868
2018-05-17T03:50:03.895Z,900
2018-05-17T03:51:13.109Z,928
2018-05-17T03:52:22.855Z,920
2018-05-17T03:53:32.879Z,908
2018-05-17T03:54:42.897Z,908
2018-05-17T03:55:52.638Z,924
2018-05-17T03:57:02.116Z,932
2018-05-17T03:58:11.860Z,924
2018-05-17T03:59:21.874Z,896
2018-05-17T04:00:31.881Z,868
2018-05-17T04:01:41.889Z,836
2018-05-17T04:02:51.630Z,824
2018-05-17T04:04:01.639Z,828
2018-05-17T04:05:11.843Z,828
2018-05-17T04:06:22.046Z,812
2018-05-17T04:07:31.839Z,796
2018-05-17T04:08:42.124Z,788
2018-05-17T04:09:51.616Z,788
2018-05-17T04:11:01.357Z,796
2018-05-17T04:12:11.110Z,796
2018-05-17T04:13:21.122Z,780
2018-05-17T04:14:30.865Z,776
2018-05-17T04:15:40.607Z,776
2018-05-17T04:16:50.615Z,796
2018-05-17T04:18:00.091Z,816
2018-05-17T04:19:10.097Z,828
2018-05-17T04:20:19.839Z,812
2018-05-17T04:21:29.314Z,796
2018-05-17T04:22:39.049Z,812
2018-05-17T04:23:48.795Z,840
2018-05-17T04:24:58.270Z,868
2018-05-17T04:26:07.742Z,884
2018-05-17T04:27:17.747Z,904
2018-05-17T04:28:27.216Z,940
2018-05-17T04:29:36.955Z,984
2018-05-17T04:30:46.697Z,1016
2018-05-17T04:31:56.167Z,1032
2018-05-17T04:33:06.184Z,1032
2018-05-17T04:34:15.948Z,1028
2018-05-17T04:35:25.688Z,1072
2018-05-17T04:36:35.167Z,1164
2018-05-17T04:37:45.171Z,1248
2018-05-17T04:38:54.925Z,1296
2018-05-17T04:40:04.666Z,1388
2018-05-17T04:41:14.416Z,1528
2018-05-17T04:42:24.435Z,1692
2018-05-17T04:43:34.183Z,1840
2018-05-17T04:44:43.927Z,1944
2018-05-17T04:45:53.936Z,1996
2018-05-17T04:47:04.052Z,1960
2018-05-17T04:48:14.018Z,1900
2018-05-17T04:49:24.026Z,1848
2018-05-17T04:50:33.499Z,1816
2018-05-17T04:51:43.241Z,1828
2018-05-17T04:52:52.978Z,1880
2018-05-17T04:54:02.991Z,2004
2018-05-17T04:55:13.014Z,2144
2018-05-17T04:56:23.020Z,2228
2018-05-17T04:57:33.032Z,2272
2018-05-17T04:58:43.062Z,2256
2018-05-17T04:59:53.077Z,2236
2018-05-17T05:01:02.548Z,2268
2018-05-17T05:02:12.556Z,2348
2018-05-17T05:03:22.563Z,2352
2018-05-17T05:04:32.566Z,2248
2018-05-17T05:05:42.575Z,2076
2018-05-17T05:06:52.580Z,1932
2018-05-17T05:08:02.324Z,1872
2018-05-17T05:09:12.330Z,1844
2018-05-17T05:10:22.081Z,1824
2018-05-17T05:11:31.824Z,1836
2018-05-17T05:12:41.835Z,1860
2018-05-17T05:13:51.580Z,1856
2018-05-17T05:15:01.391Z,1800
2018-05-17T05:16:10.602Z,1720
2018-05-17T05:17:20.346Z,1680
2018-05-17T05:18:30.361Z,1648
2018-05-17T05:19:40.366Z,1584
2018-05-17T05:20:50.386Z,1536
2018-05-17T05:21:59.594Z,1492
2018-05-17T05:23:09.073Z,1416
2018-05-17T05:24:18.813Z,1360
2018-05-17T05:25:28.927Z,1340
2018-05-17T05:26:38.936Z,1344
2018-05-17T05:27:48.415Z,1372
2018-05-17T05:28:58.252Z,1400
2018-05-17T05:30:07.464Z,1416
2018-05-17T05:31:17.204Z,1476
2018-05-17T05:32:27.207Z,1632
2018-05-17T05:33:36.950Z,1920
2018-05-17T05:34:46.955Z,2316
2018-05-17T05:35:56.955Z,2748
2018-05-17T05:37:06.966Z,3052
2018-05-17T05:38:16.971Z,3016
2018-05-17T05:39:26.986Z,2776
2018-05-17T05:40:36.988Z,2580
2018-05-17T05:41:46.732Z,2548
2018-05-17T05:42:56.482Z,2664
2018-05-17T05:44:05.959Z,2820
2018-05-17T05:45:15.708Z,2984
2018-05-17T05:46:25.724Z,3124
2018-05-17T05:47:35.731Z,3060
2018-05-17T05:48:45.743Z,3036
2018-05-17T05:49:55.213Z,2980
2018-05-17T05:51:04.974Z,2980
2018-05-17T05:52:14.983Z,3112
2018-05-17T05:53:24.723Z,3320
2018-05-17T05:54:34.743Z,3452
2018-05-17T05:55:44.834Z,3480
2018-05-17T05:56:54.307Z,3412
2018-05-17T05:58:04.049Z,3428
2018-05-17T05:59:14.071Z,3560
2018-05-17T06:00:23.886Z,3788
2018-05-17T06:01:33.925Z,3948
2018-05-17T06:02:43.934Z,3964
2018-05-17T06:03:53.939Z,3884
2018-05-17T06:05:03.680Z,3908
2018-05-17T06:06:13.707Z,4048
2018-05-17T06:07:23.185Z,4040
2018-05-17T06:08:33.091Z,4068
2018-05-17T06:09:42.879Z,4272
2018-05-17T06:10:52.357Z,4556
2018-05-17T06:12:02.108Z,4704
2018-05-17T06:13:12.124Z,4568
2018-05-17T06:14:21.860Z,4368
2018-05-17T06:15:31.874Z,4280
2018-05-17T06:16:41.884Z,4208
2018-05-17T06:17:51.627Z,4040
2018-05-17T06:19:01.374Z,3824
2018-05-17T06:20:11.383Z,3764
2018-05-17T06:21:21.395Z,3844
2018-05-17T06:22:31.412Z,3968
2018-05-17T06:23:40.895Z,4080
2018-05-17T06:24:50.938Z,4112
2018-05-17T06:26:00.945Z,4000
2018-05-17T06:27:10.428Z,3804
2018-05-17T06:28:20.499Z,3628
2018-05-17T06:29:30.510Z,3516
2018-05-17T06:30:40.248Z,3472
2018-05-17T06:31:50.266Z,3456
2018-05-17T06:33:00.282Z,3436
2018-05-17T06:34:10.035Z,3440
2018-05-17T06:35:20.046Z,3488
2018-05-17T06:36:30.053Z,3588
2018-05-17T06:37:39.688Z,3660
2018-05-17T06:38:50.064Z,3708
2018-05-17T06:40:00.070Z,3804
2018-05-17T06:41:10.079Z,3940
2018-05-17T06:42:19.555Z,4076
2018-05-17T06:43:29.295Z,4168
2018-05-17T06:44:38.505Z,4188
2018-05-17T06:45:48.246Z,4152
2018-05-17T06:46:58.260Z,4112
2018-05-17T06:48:07.737Z,4128
2018-05-17T06:49:17.475Z,4192
2018-05-17T06:50:27.213Z,4348
2018-05-17T06:51:36.957Z,4588
2018-05-17T06:52:46.971Z,4872
2018-05-17T06:53:56.716Z,5200
2018-05-17T06:55:06.472Z,5648
2018-05-17T06:56:16.483Z,6096
2018-05-17T06:57:26.491Z,6404
2018-05-17T06:58:36.499Z,6564
2018-05-17T06:59:45.976Z,6668
2018-05-17T07:00:56.204Z,6728
2018-05-17T07:02:06.356Z,6716
2018-05-17T07:03:16.098Z,6624
2018-05-17T07:04:25.619Z,6496
2018-05-17T07:05:35.369Z,6372
2018-05-17T07:06:45.117Z,6220
2018-05-17T07:07:55.126Z,6068
2018-05-17T07:09:04.874Z,6024
2018-05-17T07:10:14.892Z,6088
2018-05-17T07:11:24.903Z,6248
2018-05-17T07:12:34.933Z,6452
2018-05-17T07:13:44.683Z,6596
2018-05-17T07:14:54.701Z,6548
2018-05-17T07:16:04.722Z,6460
2018-05-17T07:17:14.734Z,6472
2018-05-17T07:18:25.676Z,6652
2018-05-17T07:19:35.436Z,7008
2018-05-17T07:20:45.444Z,7536
2018-05-17T07:21:54.936Z,7964
2018-05-17T07:23:04.412Z,8328
2018-05-17T07:24:14.751Z,8908
2018-05-17T07:25:24.768Z,9748
2018-05-17T07:26:34.507Z,10608
2018-05-17T07:27:44.249Z,11124
2018-05-17T07:28:53.728Z,11264
2018-05-17T07:30:02.942Z,11108
2018-05-17T07:31:12.999Z,11032
2018-05-17T07:32:22.780Z,11124
2018-05-17T07:33:32.260Z,11360
2018-05-17T07:34:42.277Z,11568
2018-05-17T07:35:51.765Z,11556
2018-05-17T07:37:01.772Z,11412
2018-05-17T07:38:11.266Z,11276
2018-05-17T07:39:21.541Z,11356
2018-05-17T07:40:31.389Z,11648
2018-05-17T07:41:41.140Z,11908
2018-05-17T07:42:50.885Z,12012
2018-05-17T07:44:00.626Z,12132
2018-05-17T07:45:10.645Z,12248
2018-05-17T07:46:20.662Z,12340
2018-05-17T07:47:30.412Z,12460
2018-05-17T07:48:40.417Z,12608
2018-05-17T07:49:50.167Z,12652
2018-05-17T07:50:59.651Z,12600
2018-05-17T07:52:09.892Z,12444
2018-05-17T07:53:19.980Z,12156
2018-05-17T07:54:29.463Z,11872
2018-05-17T07:55:39.738Z,11716
2018-05-17T07:56:49.728Z,11724
2018-05-17T07:57:59.480Z,11884
2018-05-17T07:59:09.231Z,11928
2018-05-17T08:00:19.255Z,11836
2018-05-17T08:01:29.273Z,11792
2018-05-17T08:02:39.283Z,11808
2018-05-17T08:03:49.030Z,11884
2018-05-17T08:04:58.777Z,11964
2018-05-17T08:06:07.984Z,12016
2018-05-17T08:07:17.458Z,12060
2018-05-17T08:08:27.469Z,12180
2018-05-17T08:09:37.369Z,12368
2018-05-17T08:10:47.377Z,12592
2018-05-17T08:11:57.171Z,12800
2018-05-17T08:13:07.187Z,12704
2018-05-17T08:14:16.931Z,12472
2018-05-17T08:15:26.953Z,12412
2018-05-17T08:16:36.444Z,12224
2018-05-17T08:17:46.184Z,11808
2018-05-17T08:18:55.932Z,11548
2018-05-17T08:20:05.412Z,11572
2018-05-17T08:21:15.157Z,11752
2018-05-17T08:22:24.917Z,12156
2018-05-17T08:23:34.925Z,12768
2018-05-17T08:24:44.673Z,13244
2018-05-17T08:25:54.685Z,13588
2018-05-17T08:27:04.439Z,13776
2018-05-17T08:28:14.187Z,13912
2018-05-17T08:29:24.201Z,14156
2018-05-17T08:30:33.687Z,14392
2018-05-17T08:31:43.705Z,14816
2018-05-17T08:32:53.188Z,14816
2018-05-17T08:34:03.203Z,14848
2018-05-17T08:35:12.948Z,14788
2018-05-17T08:36:23.595Z,14808
2018-05-17T08:37:33.912Z,14780
2018-05-17T08:38:43.403Z,14768
2018-05-17T08:39:53.155Z,14556
2018-05-17T08:41:02.904Z,14496
2018-05-17T08:42:12.925Z,14528
2018-05-17T08:43:22.957Z,14604
2018-05-17T08:44:32.433Z,14644
2018-05-17T08:45:42.690Z,14496
2018-05-17T08:46:52.851Z,14336
2018-05-17T08:48:02.607Z,14240
2018-05-17T08:49:12.354Z,14044
2018-05-17T08:50:22.102Z,13736
2018-05-17T08:51:31.584Z,13528
2018-05-17T08:52:41.433Z,13200
2018-05-17T08:53:50.913Z,12868
2018-05-17T08:55:00.662Z,12404
2018-05-17T08:56:10.157Z,11916
2018-05-17T08:57:19.906Z,11632
2018-05-17T08:58:29.649Z,11208
2018-05-17T08:59:39.577Z,10384
2018-05-17T09:00:49.104Z,9664
2018-05-17T09:01:58.850Z,9196
2018-05-17T09:03:08.607Z,9336
2018-05-17T09:04:18.716Z,8492
2018-05-17T09:05:28.735Z,7836
2018-05-17T09:06:38.489Z,7492
2018-05-17T09:07:48.510Z,6996
2018-05-17T09:08:58.022Z,6948
2018-05-17T09:10:07.504Z,6300
2018-05-17T09:11:16.985Z,5756
2018-05-17T09:12:26.732Z,5636
2018-05-17T09:13:37.176Z,5804
2018-05-17T09:14:46.858Z,5916
2018-05-17T09:15:56.391Z,5856
2018-05-17T09:17:06.415Z,5816
2018-05-17T09:18:16.161Z,5796
2018-05-17T09:19:25.912Z,5788
2018-05-17T09:20:35.555Z,5784
2018-05-17T09:21:45.299Z,5764
2018-05-17T09:22:55.318Z,5752
2018-05-17T09:24:05.069Z,5752
2018-05-17T09:25:15.080Z,5740
2018-05-17T09:26:24.826Z,5740
2018-05-17T09:27:34.363Z,5744
2018-05-17T09:28:44.381Z,5752
2018-05-17T09:29:53.863Z,5752
2018-05-17T09:31:03.895Z,5752
2018-05-17T09:32:13.905Z,5764
2018-05-17T09:33:23.735Z,5780
2018-05-17T09:34:33.485Z,5796
2018-05-17T09:35:43.711Z,5800
2018-05-17T09:36:53.466Z,5808
2018-05-17T09:38:03.491Z,5820
2018-05-17T09:39:13.255Z,5840
2018-05-17T09:40:23.017Z,5848
2018-05-17T09:41:33.239Z,5856
2018-05-17T09:42:42.717Z,5864
2018-05-17T09:43:52.538Z,5876
2018-05-17T09:45:02.016Z,5884
2018-05-17T09:46:12.113Z,5888
2018-05-17T09:47:22.125Z,5900
2018-05-17T09:48:32.132Z,5916
2018-05-17T09:49:42.147Z,5932
2018-05-17T09:50:52.155Z,5940
2018-05-17T09:52:01.902Z,5956
2018-05-17T09:53:11.927Z,5968
2018-05-17T09:54:21.676Z,5980
2018-05-17T09:55:31.695Z,5984
2018-05-17T09:56:41.795Z,5992
2018-05-17T09:57:51.812Z,5996
2018-05-17T09:59:01.557Z,6016
2018-05-17T10:00:11.568Z,6032
2018-05-17T10:01:21.581Z,6040
2018-05-17T10:02:31.598Z,6056
2018-05-17T10:03:41.625Z,6064
2018-05-17T10:04:51.367Z,6072
2018-05-17T10:06:01.119Z,6096
2018-05-17T10:07:10.330Z,6108
2018-05-17T10:08:20.391Z,6136
2018-05-17T10:09:30.406Z,6168
2018-05-17T10:10:40.424Z,6196
2018-05-17T10:11:50.440Z,6228
2018-05-17T10:13:00.469Z,6260
2018-05-17T10:14:10.487Z,6304
2018-05-17T10:15:19.957Z,6344
2018-05-17T10:16:29.990Z,6372
2018-05-17T10:17:39.748Z,6388
2018-05-17T10:18:49.757Z,6408
2018-05-17T10:19:59.503Z,6428
2018-05-17T10:21:08.982Z,6464
2018-05-17T10:22:18.733Z,6504
2018-05-17T10:23:28.481Z,6536
2018-05-17T10:24:38.496Z,6584
2018-05-17T10:25:47.974Z,6628
2018-05-17T10:26:57.984Z,6668
2018-05-17T10:28:07.461Z,6696
2018-05-17T10:29:16.675Z,6724
2018-05-17T10:30:26.425Z,6752
2018-05-17T10:31:36.180Z,6768
2018-05-17T10:32:46.196Z,6784
2018-05-17T10:33:55.947Z,6804
2018-05-17T10:35:05.693Z,6820
2018-05-17T10:36:15.721Z,6840
2018-05-17T10:37:25.752Z,6852
2018-05-17T10:38:35.232Z,6864
2018-05-17T10:39:44.994Z,6872
2018-05-17T10:40:55.006Z,6888
2018-05-17T10:42:04.814Z,6896
2018-05-17T10:43:15.055Z,6912
2018-05-17T10:44:24.884Z,6940
2018-05-17T10:45:34.550Z,6976
2018-05-17T10:46:44.159Z,7016
2018-05-17T10:47:54.169Z,7048
2018-05-17T10:49:04.306Z,7068
2018-05-17T10:50:14.418Z,7088
2018-05-17T10:51:24.430Z,7108
2018-05-17T10:52:34.441Z,7116
2018-05-17T10:53:43.929Z,7140
2018-05-17T10:54:53.680Z,7168
2018-05-17T10:56:03.695Z,7192
2018-05-17T10:57:13.705Z,7216
2018-05-17T10:58:23.452Z,7232
2018-05-17T10:59:33.207Z,7248
2018-05-17T11:00:42.955Z,7268
2018-05-17T11:01:52.977Z,7292
2018-05-17T11:03:03.004Z,7328
2018-05-17T11:04:13.037Z,7376
2018-05-17T11:05:23.048Z,7420
2018-05-17T11:06:33.059Z,7456
2018-05-17T11:07:43.083Z,7496
2018-05-17T11:08:52.830Z,7536
2018-05-17T11:10:02.840Z,7580
2018-05-17T11:11:12.585Z,7620
2018-05-17T11:12:22.689Z,7656
2018-05-17T11:13:32.702Z,7704
2018-05-17T11:14:42.450Z,7744
2018-05-17T11:15:52.555Z,7784
2018-05-17T11:17:02.299Z,7820
2018-05-17T11:18:11.779Z,7876
2018-05-17T11:19:21.801Z,7916
2018-05-17T11:20:31.565Z,8004
2018-05-17T11:21:41.325Z,8084
2018-05-17T11:22:51.075Z,8148
2018-05-17T11:24:01.096Z,8232
2018-05-17T11:25:10.576Z,8492
2018-05-17T11:26:20.326Z,9256
2018-05-17T11:27:29.803Z,10904
2018-05-17T11:28:39.280Z,37888
2018-05-17T11:29:49.035Z,84384
2018-05-17T11:30:59.114Z,86016
2018-05-17T11:32:09.145Z,82976
2018-05-17T11:33:18.816Z,79520
2018-05-17T11:34:28.567Z,78720
2018-05-17T11:35:38.062Z,78624
2018-05-17T11:36:48.081Z,77088
2018-05-17T11:37:58.099Z,72512
2018-05-17T11:39:08.121Z,69952
2018-05-17T11:40:17.611Z,74624
2018-05-17T11:41:27.637Z,82432
2018-05-17T11:42:37.663Z,84096
2018-05-17T11:43:47.724Z,83168
2018-05-17T11:44:57.477Z,82752
2018-05-17T11:46:07.494Z,84224
2018-05-17T11:47:17.256Z,83520
2018-05-17T11:48:27.527Z,82016
2018-05-17T11:49:37.644Z,81344
2018-05-17T11:50:47.171Z,80448
2018-05-17T11:51:56.666Z,79104
2018-05-17T11:53:06.422Z,86080
2018-05-17T11:54:15.647Z,91744
2018-05-17T11:55:25.679Z,88192
2018-05-17T11:56:35.707Z,86048
2018-05-17T11:57:45.736Z,79520
2018-05-17T11:58:55.631Z,81824
2018-05-17T12:00:05.391Z,82976
2018-05-17T12:01:15.425Z,84960
2018-05-17T12:02:25.196Z,84096
2018-05-17T12:03:34.702Z,85408
2018-05-17T12:04:44.572Z,89152
2018-05-17T12:05:54.598Z,83456
2018-05-17T12:07:04.094Z,81280
2018-05-17T12:08:13.862Z,81696
2018-05-17T12:09:23.624Z,77344
2018-05-17T12:10:33.704Z,69696
2018-05-17T12:11:43.734Z,71360
2018-05-17T12:12:53.768Z,78304
2018-05-17T12:14:03.538Z,80608
2018-05-17T12:15:13.307Z,78368
2018-05-17T12:16:23.094Z,80064
2018-05-17T12:17:33.127Z,77088
2018-05-17T12:18:42.631Z,79200
2018-05-17T12:19:52.762Z,85376
2018-05-17T12:21:01.992Z,85952
2018-05-17T12:22:11.754Z,81408
2018-05-17T12:23:21.531Z,80768
2018-05-17T12:24:31.299Z,77536
2018-05-17T12:25:41.062Z,70112
2018-05-17T12:26:50.832Z,71520
2018-05-17T12:28:00.881Z,78720
2018-05-17T12:29:10.915Z,80192
2018-05-17T12:30:20.423Z,83104
2018-05-17T12:31:30.472Z,76672
2018-05-17T12:32:40.327Z,75520
2018-05-17T12:33:50.368Z,74720
2018-05-17T12:34:59.601Z,75712
2018-05-17T12:36:09.653Z,78400
2018-05-17T12:37:19.851Z,77024
2018-05-17T12:38:29.949Z,80576
2018-05-17T12:39:39.987Z,84608
2018-05-17T12:40:50.020Z,88448
2018-05-17T12:42:00.061Z,84800
2018-05-17T12:43:09.571Z,80000
2018-05-17T12:44:19.608Z,81440
2018-05-17T12:45:29.643Z,81760
2018-05-17T12:46:39.674Z,84160
2018-05-17T12:47:50.044Z,86336
2018-05-17T12:48:59.475Z,81760
2018-05-17T12:50:09.338Z,78336
2018-05-17T12:51:19.379Z,77760
2018-05-17T12:52:29.147Z,79104
2018-05-17T12:53:38.921Z,81568
2018-05-17T12:54:48.690Z,82464
2018-05-17T12:55:58.451Z,81280
2018-05-17T12:57:07.412Z,80736
2018-05-17T12:58:17.442Z,80640
2018-05-17T12:59:27.478Z,84960
2018-05-17T13:00:37.525Z,86240
2018-05-17T13:01:47.590Z,84640
2018-05-17T13:02:57.639Z,86432
2018-05-17T13:04:07.406Z,84800
2018-05-17T13:05:16.905Z,82432
2018-05-17T13:06:26.676Z,85248
2018-05-17T13:07:36.706Z,87584
2018-05-17T13:08:46.203Z,88672
2018-05-17T13:09:56.248Z,86048
2018-05-17T13:11:06.026Z,82208
2018-05-17T13:12:16.153Z,79776
2018-05-17T13:13:25.916Z,83616
2018-05-17T13:14:35.684Z,90272
2018-05-17T13:15:45.455Z,91360
2018-05-17T13:16:55.221Z,84512
2018-05-17T13:18:04.716Z,80640
2018-05-17T13:19:14.756Z,86784
2018-05-17T13:20:24.796Z,88736
2018-05-17T13:21:34.565Z,84384
2018-05-17T13:22:44.596Z,86592
2018-05-17T13:23:54.628Z,91168
2018-05-17T13:25:04.216Z,90848
2018-05-17T13:26:14.255Z,86336
2018-05-17T13:27:24.298Z,82624
2018-05-17T13:28:34.073Z,89280
2018-05-17T13:29:44.110Z,88640
2018-05-17T13:30:54.230Z,82592
2018-05-17T13:32:03.727Z,88352
2018-05-17T13:33:13.763Z,91968
2018-05-17T13:34:23.798Z,88448
2018-05-17T13:35:33.578Z,81440
2018-05-17T13:36:43.619Z,79488
2018-05-17T13:37:53.459Z,84576
2018-05-17T13:39:03.242Z,81216
2018-05-17T13:40:13.275Z,78688
2018-05-17T13:41:22.506Z,81536
2018-05-17T13:42:32.017Z,81088
2018-05-17T13:43:42.052Z,84608
2018-05-17T13:44:52.193Z,83296
2018-05-17T13:46:02.228Z,82080
2018-05-17T13:47:12.054Z,88224
2018-05-17T13:48:22.093Z,86336
2018-05-17T13:49:31.867Z,83008
2018-05-17T13:50:41.380Z,84320
2018-05-17T13:51:51.151Z,82368
2018-05-17T13:53:00.919Z,75040
2018-05-17T13:54:10.419Z,72000
2018-05-17T13:55:20.190Z,73664
2018-05-17T13:56:30.222Z,76480
2018-05-17T13:57:40.264Z,79040
2018-05-17T13:58:50.063Z,77216
2018-05-17T14:00:00.095Z,79680
2018-05-17T14:01:09.652Z,81184
2018-05-17T14:02:19.808Z,80448
2018-05-17T14:03:30.171Z,80352
2018-05-17T14:04:40.221Z,77728
2018-05-17T14:05:50.337Z,73824
2018-05-17T14:07:00.116Z,72864
2018-05-17T14:08:09.347Z,74144
2018-05-17T14:09:19.384Z,63872
2018-05-17T14:10:29.165Z,48800
2018-05-17T14:11:38.931Z,43808
2018-05-17T14:12:49.322Z,47008
2018-05-17T14:13:59.035Z,56032
2018-05-17T14:15:09.189Z,66112
2018-05-17T14:16:19.273Z,65120
2018-05-17T14:17:29.383Z,71232
2018-05-17T14:18:38.887Z,77408
2018-05-17T14:19:48.923Z,76896
2018-05-17T14:20:58.692Z,71808
2018-05-17T14:22:08.195Z,70400
2018-05-17T14:23:18.409Z,76960
2018-05-17T14:24:28.225Z,75328
2018-05-17T14:25:38.260Z,71968
2018-05-17T14:26:48.300Z,77312
2018-05-17T14:27:58.335Z,78400
2018-05-17T14:29:08.110Z,74560
2018-05-17T14:30:17.889Z,67712
2018-05-17T14:31:27.930Z,64704
2018-05-17T14:32:37.962Z,65184
2018-05-17T14:33:47.197Z,72032
2018-05-17T14:34:56.994Z,79232
2018-05-17T14:36:06.496Z,77504
2018-05-17T14:37:16.262Z,69056
2018-05-17T14:38:26.302Z,59136
2018-05-17T14:39:36.344Z,57184
2018-05-17T14:40:46.205Z,59488
2018-05-17T14:41:56.080Z,55776
2018-05-17T14:43:06.110Z,50656
2018-05-17T14:44:15.880Z,46752
2018-05-17T14:45:25.917Z,47552
2018-05-17T14:46:35.974Z,50592
2018-05-17T14:47:46.017Z,55232
2018-05-17T14:48:55.516Z,60096
2018-05-17T14:50:05.291Z,67712
2018-05-17T14:51:14.803Z,70400
2018-05-17T14:52:24.843Z,68128
2018-05-17T14:53:34.951Z,69728
2018-05-17T14:54:44.724Z,72576
2018-05-17T14:55:54.713Z,71072
2018-05-17T14:57:04.844Z,68256
2018-05-17T14:58:14.075Z,66336
2018-05-17T14:59:23.839Z,70592
2018-05-17T15:00:33.886Z,76896
2018-05-17T15:01:43.936Z,80352
2018-05-17T15:02:54.060Z,83616
2018-05-17T15:04:03.827Z,85152
2018-05-17T15:05:13.327Z,85344
2018-05-17T15:06:23.104Z,86432
2018-05-17T15:07:33.147Z,85920
2018-05-17T15:08:44.106Z,85376
2018-05-17T15:09:54.324Z,85920
2018-05-17T15:11:06.614Z,87008
2018-05-17T15:12:16.416Z,82272
2018-05-17T15:13:26.467Z,82080
2018-05-17T15:14:36.499Z,83520
2018-05-17T15:15:46.276Z,84128
2018-05-17T15:16:56.310Z,82336
2018-05-17T15:18:06.079Z,84192
2018-05-17T15:19:16.166Z,83168
2018-05-17T15:20:25.943Z,79136
2018-05-17T15:21:35.509Z,78688
2018-05-17T15:22:45.541Z,81632
2018-05-17T15:23:55.577Z,80384
2018-05-17T15:25:05.345Z,77088
2018-05-17T15:26:15.438Z,75808
2018-05-17T15:27:25.989Z,78624
2018-05-17T15:28:35.967Z,80320
2018-05-17T15:29:46.357Z,78176
2018-05-17T15:30:56.470Z,74624
2018-05-17T15:32:06.515Z,75744
2018-05-17T15:33:16.551Z,76192
2018-05-17T15:34:26.320Z,74880
2018-05-17T15:35:36.131Z,73984
2018-05-17T15:36:46.171Z,74720
2018-05-17T15:37:55.946Z,78592
2018-05-17T15:39:05.719Z,77216